Time;durP1;ratioP1;P1;durP2;ratioP2;P2;SDS_P1;SDS_P2;PMS_P1;PMS_P2;Temp;Humidity;BMP_temperature;BMP_pressure;BME280_temperature;BME280_humidity;BME280_pressure;Samples;Min_cycle;Max_cycle;Signal;HPM_P1;HPM_P2
2022/07/09 00:00:58;;;;;;;6.03;1.13;;;;;;;;;;4974269;28;20635;-76
2022/07/09 00:03:24;;;;;;;3.15;1.20;;;;;;;;;;4974529;28;20594;-76
2022/07/09 00:05:49;;;;;;;5.20;1.15;;;;;;;;;;4974538;28;20080;-76
2022/07/09 00:08:14;;;;;;;4.55;1.17;;;;;;;;;;4991940;28;20081;-75
2022/07/09 00:10:40;;;;;;;2.70;1.10;;;;;;;;;;4991740;28;20127;-75
2022/07/09 00:13:05;;;;;;;1.83;1.00;;;;;;;;;;4992019;28;20025;-77
2022/07/09 00:15:31;;;;;;;3.20;1.20;;;;;;;;;;4991893;28;20375;-75
2022/07/09 00:17:56;;;;;;;3.13;1.10;;;;;;;;;;4991651;28;20122;-77
2022/07/09 00:20:22;;;;;;;2.47;1.10;;;;;;;;;;4991454;28;20048;-76
2022/07/09 00:22:47;;;;;;;2.85;1.10;;;;;;;;;;4991664;28;20524;-77
2022/07/09 00:25:13;;;;;;;2.25;1.20;;;;;;;;;;4991896;28;20077;-76
2022/07/09 00:27:38;;;;;;;2.80;1.30;;;;;;;;;;4991608;28;20034;-76
2022/07/09 00:30:04;;;;;;;3.53;1.30;;;;;;;;;;4991474;28;20030;-75
2022/07/09 00:32:29;;;;;;;3.20;1.10;;;;;;;;;;4991533;28;20026;-76
2022/07/09 00:34:55;;;;;;;3.67;1.30;;;;;;;;;;4991545;28;20065;-75
2022/07/09 00:37:20;;;;;;;4.40;1.30;;;;;;;;;;4973664;28;20041;-74
2022/07/09 00:39:46;;;;;;;5.78;1.35;;;;;;;;;;4991333;28;20076;-75
2022/07/09 00:42:11;;;;;;;5.75;1.25;;;;;;;;;;4991349;28;20104;-75
2022/07/09 00:44:38;;;;;;;3.03;1.25;;;;;;;;;;4991313;28;20038;-76
2022/07/09 00:47:06;;;;;;;3.03;1.50;;;;;;;;;;4991229;28;20041;-75
2022/07/09 00:49:35;;;;;;;5.63;1.35;;;;;;;;;;4991344;28;20502;-75
2022/07/09 00:52:01;;;;;;;3.10;1.10;;;;;;;;;;4990910;28;20041;-75
2022/07/09 00:54:26;;;;;;;2.08;1.20;;;;;;;;;;4991137;28;20022;-76
2022/07/09 00:56:53;;;;;;;3.58;1.30;;;;;;;;;;4990940;28;20204;-74
2022/07/09 00:59:20;;;;;;;3.25;1.30;;;;;;;;;;4991338;28;20688;-73
2022/07/09 01:01:46;;;;;;;2.63;1.20;;;;;;;;;;4990949;28;20061;-73
2022/07/09 01:04:12;;;;;;;6.30;1.25;;;;;;;;;;4990921;28;20522;-74
2022/07/09 01:06:37;;;;;;;2.90;1.30;;;;;;;;;;4990937;28;20018;-74
2022/07/09 01:09:03;;;;;;;3.65;1.20;;;;;;;;;;4973193;28;20034;-74
2022/07/09 01:11:30;;;;;;;3.60;1.48;;;;;;;;;;4990515;28;20693;-73
2022/07/09 01:13:55;;;;;;;4.03;1.20;;;;;;;;;;4991020;28;20030;-74
2022/07/09 01:16:20;;;;;;;2.55;1.30;;;;;;;;;;4991004;28;20109;-75
2022/07/09 01:18:47;;;;;;;2.15;1.20;;;;;;;;;;4990871;28;20038;-76
2022/07/09 01:21:13;;;;;;;1.67;1.10;;;;;;;;;;4990861;28;20035;-75
2022/07/09 01:23:39;;;;;;;2.38;1.42;;;;;;;;;;4990678;28;20186;-76
2022/07/09 01:26:04;;;;;;;4.65;1.30;;;;;;;;;;4990710;28;20029;-75
2022/07/09 01:28:30;;;;;;;2.53;1.30;;;;;;;;;;4990539;28;20033;-76
2022/07/09 01:30:55;;;;;;;2.25;1.20;;;;;;;;;;4990765;28;20034;-74
2022/07/09 01:33:21;;;;;;;4.45;1.17;;;;;;;;;;4990823;28;20414;-74
2022/07/09 01:35:46;;;;;;;2.40;1.30;;;;;;;;;;4990742;28;20514;-73
2022/07/09 01:38:11;;;;;;;3.25;1.40;;;;;;;;;;4990655;28;20025;-73
2022/07/09 01:40:37;;;;;;;2.88;1.20;;;;;;;;;;4990476;28;20126;-74
2022/07/09 01:43:02;;;;;;;2.83;1.35;;;;;;;;;;4990520;28;20830;-73
2022/07/09 01:45:28;;;;;;;1.95;1.25;;;;;;;;;;4990470;28;20064;-73
2022/07/09 01:47:53;;;;;;;3.40;1.30;;;;;;;;;;4990467;28;20517;-74
2022/07/09 01:50:19;;;;;;;2.95;1.25;;;;;;;;;;4990448;28;20023;-73
2022/07/09 01:52:44;;;;;;;3.47;1.40;;;;;;;;;;4990512;28;20023;-74
2022/07/09 01:55:10;;;;;;;2.83;1.42;;;;;;;;;;4990368;28;20018;-74
2022/07/09 01:57:35;;;;;;;7.55;1.40;;;;;;;;;;4972864;28;20140;-75
2022/07/09 02:00:03;;;;;;;4.85;1.30;;;;;;;;;;4990434;28;20157;-73
2022/07/09 02:02:29;;;;;;;2.38;1.30;;;;;;;;;;4990337;28;20019;-72
2022/07/09 02:04:54;;;;;;;3.85;1.48;;;;;;;;;;4990471;28;20018;-72
2022/07/09 02:07:20;;;;;;;6.00;1.38;;;;;;;;;;4972778;28;20487;-73
2022/07/09 02:09:45;;;;;;;3.92;1.40;;;;;;;;;;4990053;28;20047;-72
2022/07/09 02:12:11;;;;;;;3.53;1.30;;;;;;;;;;4990478;28;20077;-72
2022/07/09 02:14:36;;;;;;;5.88;1.25;;;;;;;;;;4973148;28;20042;-73
2022/07/09 02:17:02;;;;;;;3.75;1.27;;;;;;;;;;4992719;28;20486;-73
2022/07/09 02:19:27;;;;;;;2.05;1.40;;;;;;;;;;4994025;28;20037;-74
2022/07/09 02:21:53;;;;;;;3.72;1.17;;;;;;;;;;4976128;28;20061;-76
2022/07/09 02:24:18;;;;;;;6.90;1.70;;;;;;;;;;4993925;28;20037;-73
2022/07/09 02:26:44;;;;;;;4.65;1.50;;;;;;;;;;4993809;28;20033;-75
2022/07/09 02:29:09;;;;;;;6.78;1.67;;;;;;;;;;4994003;28;20073;-73
2022/07/09 02:31:34;;;;;;;3.25;1.35;;;;;;;;;;4993558;28;20501;-74
2022/07/09 02:34:00;;;;;;;3.70;1.50;;;;;;;;;;4993840;28;20030;-73
2022/07/09 02:36:25;;;;;;;5.03;1.60;;;;;;;;;;4993879;28;20096;-74
2022/07/09 02:38:51;;;;;;;6.68;1.60;;;;;;;;;;4993473;28;20402;-73
2022/07/09 02:41:16;;;;;;;3.03;1.50;;;;;;;;;;4993471;28;20415;-74
2022/07/09 02:43:45;;;;;;;2.83;1.38;;;;;;;;;;4993471;28;20030;-74
2022/07/09 02:46:11;;;;;;;3.53;1.30;;;;;;;;;;4993730;28;20036;-72
2022/07/09 02:48:37;;;;;;;4.38;1.20;;;;;;;;;;4993612;28;20380;-73
2022/07/09 02:51:03;;;;;;;5.35;1.45;;;;;;;;;;4993281;28;20030;-73
2022/07/09 02:53:29;;;;;;;3.17;1.40;;;;;;;;;;4993551;28;20459;-72
2022/07/09 02:55:55;;;;;;;3.03;1.30;;;;;;;;;;4993262;28;20614;-72
2022/07/09 02:58:20;;;;;;;2.15;1.40;;;;;;;;;;4975533;28;20042;-72
2022/07/09 03:00:46;;;;;;;4.47;1.20;;;;;;;;;;4993270;28;20019;-73
2022/07/09 03:03:11;;;;;;;5.30;1.35;;;;;;;;;;4993473;28;20022;-76
2022/07/09 03:05:37;;;;;;;3.28;1.20;;;;;;;;;;4993301;28;20045;-76
2022/07/09 03:08:02;;;;;;;2.80;1.38;;;;;;;;;;4992890;28;20517;-75
2022/07/09 03:10:28;;;;;;;3.83;1.30;;;;;;;;;;4992947;28;20029;-76
2022/07/09 03:12:54;;;;;;;5.47;1.65;;;;;;;;;;4992949;28;20505;-75
2022/07/09 03:15:19;;;;;;;5.70;1.60;;;;;;;;;;4993048;28;20030;-76
2022/07/09 03:17:46;;;;;;;4.82;1.40;;;;;;;;;;4992929;28;20037;-76
2022/07/09 03:20:12;;;;;;;5.20;1.40;;;;;;;;;;4993140;28;20062;-76
2022/07/09 03:22:39;;;;;;;3.25;1.30;;;;;;;;;;4992586;28;20027;-76
2022/07/09 03:25:05;;;;;;;2.78;1.42;;;;;;;;;;4992843;28;20034;-76
2022/07/09 03:27:31;;;;;;;5.55;1.50;;;;;;;;;;4992413;28;20034;-75
2022/07/09 03:29:56;;;;;;;3.88;1.65;;;;;;;;;;4992663;28;20180;-77
2022/07/09 03:32:22;;;;;;;2.40;1.50;;;;;;;;;;4992626;28;20030;-77
2022/07/09 03:34:48;;;;;;;7.05;1.60;;;;;;;;;;4992977;28;20030;-76
2022/07/09 03:37:13;;;;;;;2.75;1.60;;;;;;;;;;4992632;28;20027;-77
2022/07/09 03:39:39;;;;;;;3.78;1.40;;;;;;;;;;4992766;28;20030;-76
2022/07/09 03:42:08;;;;;;;5.10;1.60;;;;;;;;;;4992551;28;20061;-76
2022/07/09 03:44:34;;;;;;;4.20;1.60;;;;;;;;;;4992409;28;20034;-75
2022/07/09 03:47:00;;;;;;;3.33;1.63;;;;;;;;;;4992312;28;20034;-75
2022/07/09 03:49:25;;;;;;;4.93;1.50;;;;;;;;;;4992229;28;20490;-73
2022/07/09 03:51:53;;;;;;;8.68;1.58;;;;;;;;;;4992211;28;20033;-76
2022/07/09 03:54:19;;;;;;;6.35;1.60;;;;;;;;;;4974795;28;20065;-76
2022/07/09 03:56:44;;;;;;;4.97;1.50;;;;;;;;;;4992088;28;20490;-75
2022/07/09 03:59:10;;;;;;;5.28;2.00;;;;;;;;;;4992359;28;20026;-76
2022/07/09 04:01:35;;;;;;;6.03;1.60;;;;;;;;;;4991989;28;20037;-75
2022/07/09 04:04:01;;;;;;;4.70;1.60;;;;;;;;;;4992036;28;20022;-75
2022/07/09 04:06:26;;;;;;;6.00;1.58;;;;;;;;;;4991922;28;20081;-76
2022/07/09 04:08:52;;;;;;;4.20;1.50;;;;;;;;;;4992024;28;20035;-76
2022/07/09 04:11:17;;;;;;;3.10;1.50;;;;;;;;;;4991854;28;20113;-75
2022/07/09 04:13:43;;;;;;;3.25;1.50;;;;;;;;;;4992053;28;20026;-73
2022/07/09 04:16:08;;;;;;;4.38;1.77;;;;;;;;;;4991892;28;20037;-75
2022/07/09 04:18:35;;;;;;;6.25;1.50;;;;;;;;;;4991974;28;20030;-73
2022/07/09 04:21:00;;;;;;;3.70;1.60;;;;;;;;;;4991679;28;20065;-75
2022/07/09 04:23:26;;;;;;;3.17;1.77;;;;;;;;;;4991227;28;20505;-75
2022/07/09 04:25:52;;;;;;;4.75;1.35;;;;;;;;;;4991888;28;20054;-75
2022/07/09 04:28:18;;;;;;;4.25;1.40;;;;;;;;;;4991536;28;20379;-74
2022/07/09 04:30:50;;;;;;;5.28;1.45;;;;;;;;;;4991822;28;20026;-76
2022/07/09 04:33:15;;;;;;;4.00;1.77;;;;;;;;;;4991454;28;20057;-75
2022/07/09 04:35:41;;;;;;;3.35;1.55;;;;;;;;;;4991642;28;20054;-75
2022/07/09 04:38:06;;;;;;;4.53;1.70;;;;;;;;;;4991205;28;20042;-75
2022/07/09 04:40:31;;;;;;;5.68;1.60;;;;;;;;;;4990684;28;20022;-75
2022/07/09 04:42:57;;;;;;;5.03;1.30;;;;;;;;;;4991260;28;20038;-74
2022/07/09 04:45:22;;;;;;;4.30;1.50;;;;;;;;;;4991541;28;20023;-74
2022/07/09 04:47:48;;;;;;;3.60;1.33;;;;;;;;;;4991275;28;20026;-73
2022/07/09 04:50:14;;;;;;;4.80;1.63;;;;;;;;;;4991422;28;20060;-73
2022/07/09 04:52:39;;;;;;;3.88;1.70;;;;;;;;;;4990937;28;20029;-72
2022/07/09 04:55:06;;;;;;;4.85;1.20;;;;;;;;;;4991089;28;20026;-74
2022/07/09 04:57:31;;;;;;;5.15;1.48;;;;;;;;;;4990924;28;20050;-74
2022/07/09 05:00:00;;;;;;;3.90;1.52;;;;;;;;;;4991152;28;20042;-73
2022/07/09 05:02:26;;;;;;;5.43;1.63;;;;;;;;;;4990954;28;20022;-72
2022/07/09 05:04:52;;;;;;;2.95;1.80;;;;;;;;;;4991198;28;20053;-73
2022/07/09 05:07:17;;;;;;;3.60;1.98;;;;;;;;;;4991067;28;20035;-75
2022/07/09 05:09:43;;;;;;;4.40;1.90;;;;;;;;;;4991059;28;20426;-73
2022/07/09 05:12:10;;;;;;;5.38;2.10;;;;;;;;;;4990476;28;20026;-73
2022/07/09 05:14:36;;;;;;;5.55;2.20;;;;;;;;;;4990928;28;20018;-74
2022/07/09 05:17:02;;;;;;;5.90;2.10;;;;;;;;;;4990815;28;20486;-75
2022/07/09 05:19:27;;;;;;;4.75;2.33;;;;;;;;;;4990811;28;20073;-74
2022/07/09 05:21:53;;;;;;;3.78;2.00;;;;;;;;;;4990719;28;20117;-75
2022/07/09 05:24:18;;;;;;;9.52;2.30;;;;;;;;;;4990879;28;20038;-72
2022/07/09 05:26:43;;;;;;;6.90;1.85;;;;;;;;;;4990712;28;20023;-73
2022/07/09 05:29:09;;;;;;;5.18;1.73;;;;;;;;;;4990710;28;20062;-75
2022/07/09 05:31:34;;;;;;;6.63;1.67;;;;;;;;;;4990583;28;20045;-76
2022/07/09 05:34:00;;;;;;;2.42;1.30;;;;;;;;;;4990681;28;20030;-75
2022/07/09 05:36:28;;;;;;;3.88;1.42;;;;;;;;;;4990711;28;20030;-74
2022/07/09 05:38:54;;;;;;;3.50;1.40;;;;;;;;;;4990653;28;20062;-76
2022/07/09 05:41:22;;;;;;;2.58;1.38;;;;;;;;;;4990792;28;20030;-76
2022/07/09 05:43:47;;;;;;;5.55;1.50;;;;;;;;;;4990808;28;20429;-75
2022/07/09 05:46:13;;;;;;;3.30;1.45;;;;;;;;;;4990534;28;20475;-74
2022/07/09 05:48:38;;;;;;;3.25;1.55;;;;;;;;;;4990478;28;20030;-75
2022/07/09 05:51:04;;;;;;;5.45;1.50;;;;;;;;;;4992941;28;20031;-75
2022/07/09 05:53:29;;;;;;;6.57;1.60;;;;;;;;;;4994119;28;20033;-75
2022/07/09 05:55:55;;;;;;;4.78;1.40;;;;;;;;;;4994520;28;20072;-75
2022/07/09 05:58:20;;;;;;;4.18;1.73;;;;;;;;;;4994435;28;20050;-74
2022/07/09 06:00:46;;;;;;;6.03;1.70;;;;;;;;;;4994558;28;20030;-75
2022/07/09 06:03:11;;;;;;;4.97;1.90;;;;;;;;;;4994116;28;20026;-75
2022/07/09 06:05:36;;;;;;;5.03;1.60;;;;;;;;;;4994400;28;20519;-76
2022/07/09 06:08:02;;;;;;;4.80;1.65;;;;;;;;;;4993949;28;20038;-75
2022/07/09 06:10:27;;;;;;;5.30;1.63;;;;;;;;;;4994138;28;20161;-76
2022/07/09 06:12:53;;;;;;;3.80;1.70;;;;;;;;;;4994088;28;20019;-75
2022/07/09 06:15:18;;;;;;;4.85;1.50;;;;;;;;;;4994256;28;20030;-76
2022/07/09 06:17:44;;;;;;;3.70;1.63;;;;;;;;;;4994303;28;20042;-75
2022/07/09 06:20:09;;;;;;;4.43;1.63;;;;;;;;;;4994114;28;20065;-76
2022/07/09 06:22:35;;;;;;;4.95;1.70;;;;;;;;;;4993575;28;20053;-76
2022/07/09 06:25:00;;;;;;;9.27;1.60;;;;;;;;;;4994128;28;20019;-76
2022/07/09 06:27:26;;;;;;;3.83;1.60;;;;;;;;;;4993775;28;20498;-76
2022/07/09 06:29:51;;;;;;;4.43;1.65;;;;;;;;;;4994007;28;20606;-76
2022/07/09 06:32:16;;;;;;;4.13;1.60;;;;;;;;;;4993686;28;20027;-76
2022/07/09 06:34:42;;;;;;;2.67;1.50;;;;;;;;;;4993917;28;20057;-76
2022/07/09 06:37:07;;;;;;;4.13;1.63;;;;;;;;;;4993598;28;20058;-77
2022/07/09 06:39:45;;;;;;;3.35;1.40;;;;;;;;;;4993796;28;20057;-77
2022/07/09 06:42:12;;;;;;;4.60;1.33;;;;;;;;;;4993431;28;20022;-77
2022/07/09 06:44:39;;;;;;;2.88;1.40;;;;;;;;;;4993370;28;20053;-76
2022/07/09 06:47:05;;;;;;;3.40;1.50;;;;;;;;;;4993632;28;20022;-76
2022/07/09 06:49:31;;;;;;;4.93;1.70;;;;;;;;;;4993557;28;20069;-76
2022/07/09 06:51:57;;;;;;;3.92;1.33;;;;;;;;;;4993628;28;20038;-76
2022/07/09 06:54:22;;;;;;;6.63;1.45;;;;;;;;;;4993354;28;20080;-76
2022/07/09 06:56:48;;;;;;;3.65;1.40;;;;;;;;;;4993255;28;20109;-76
2022/07/09 06:59:13;;;;;;;3.10;1.20;;;;;;;;;;4993154;28;20107;-75
2022/07/09 07:01:39;;;;;;;6.03;1.40;;;;;;;;;;4992567;28;20034;-75
2022/07/09 07:04:05;;;;;;;4.50;1.27;;;;;;;;;;4993126;28;20117;-76
2022/07/09 07:06:30;;;;;;;3.33;1.20;;;;;;;;;;4993327;28;20022;-76
2022/07/09 07:08:56;;;;;;;3.35;1.10;;;;;;;;;;4992993;28;20566;-75
2022/07/09 07:11:21;;;;;;;4.55;1.58;;;;;;;;;;4993161;28;20073;-74
2022/07/09 07:13:46;;;;;;;5.40;1.45;;;;;;;;;;4992867;28;20045;-75
2022/07/09 07:16:12;;;;;;;3.08;1.30;;;;;;;;;;4993085;28;20422;-76
2022/07/09 07:18:37;;;;;;;5.25;1.40;;;;;;;;;;4992930;28;20022;-75
2022/07/09 07:21:03;;;;;;;3.70;1.42;;;;;;;;;;4993134;28;20030;-75
2022/07/09 07:23:31;;;;;;;3.80;1.42;;;;;;;;;;4992676;28;20407;-75
2022/07/09 07:25:57;;;;;;;8.10;1.40;;;;;;;;;;4975567;28;20038;-74
2022/07/09 07:28:23;;;;;;;5.55;1.40;;;;;;;;;;4992815;28;20525;-73
2022/07/09 07:30:48;;;;;;;3.35;1.20;;;;;;;;;;4992572;28;20081;-73
2022/07/09 07:33:14;;;;;;;6.60;1.30;;;;;;;;;;4992453;28;20088;-73
2022/07/09 07:35:39;;;;;;;5.57;1.50;;;;;;;;;;4992480;28;20398;-76
2022/07/09 07:38:05;;;;;;;5.88;1.23;;;;;;;;;;4992858;28;20049;-75
2022/07/09 07:40:30;;;;;;;5.35;1.45;;;;;;;;;;4992638;28;20030;-76
2022/07/09 07:42:56;;;;;;;2.78;1.45;;;;;;;;;;4992405;28;20034;-75
2022/07/09 07:45:21;;;;;;;4.63;1.40;;;;;;;;;;4992609;28;20031;-75
2022/07/09 07:47:46;;;;;;;3.95;1.20;;;;;;;;;;4992281;28;20093;-75
2022/07/09 07:50:12;;;;;;;4.47;1.42;;;;;;;;;;4974729;28;20026;-75
2022/07/09 07:52:37;;;;;;;3.03;1.30;;;;;;;;;;4991975;28;20446;-75
2022/07/09 07:55:03;;;;;;;4.45;1.58;;;;;;;;;;4992409;28;20073;-75
2022/07/09 07:57:28;;;;;;;4.85;1.40;;;;;;;;;;4992033;28;20042;-76
2022/07/09 07:59:54;;;;;;;5.45;1.42;;;;;;;;;;4992269;28;20475;-73
2022/07/09 08:02:19;;;;;;;3.95;1.50;;;;;;;;;;4992297;28;20030;-73
2022/07/09 08:04:45;;;;;;;4.00;1.27;;;;;;;;;;4992069;28;20102;-73
2022/07/09 08:07:10;;;;;;;4.00;1.30;;;;;;;;;;4991721;28;20463;-73
2022/07/09 08:09:35;;;;;;;4.95;1.20;;;;;;;;;;4991901;28;20029;-74
2022/07/09 08:12:01;;;;;;;4.78;1.50;;;;;;;;;;4991765;28;20046;-74
2022/07/09 08:14:27;;;;;;;3.78;1.40;;;;;;;;;;4990783;28;20037;-74
2022/07/09 08:16:52;;;;;;;3.88;1.92;;;;;;;;;;4992033;28;20030;-75
2022/07/09 08:19:18;;;;;;;4.88;1.40;;;;;;;;;;4992040;28;20607;-73
2022/07/09 08:21:43;;;;;;;6.55;1.40;;;;;;;;;;4991780;28;20505;-73
2022/07/09 08:24:08;;;;;;;5.63;1.30;;;;;;;;;;4991381;28;20026;-74
2022/07/09 08:26:34;;;;;;;6.28;1.60;;;;;;;;;;4991565;28;20033;-73
2022/07/09 08:28:59;;;;;;;4.22;1.30;;;;;;;;;;4992036;28;20030;-73
2022/07/09 08:31:25;;;;;;;6.05;1.42;;;;;;;;;;4991547;28;20072;-74
2022/07/09 08:33:50;;;;;;;5.82;1.60;;;;;;;;;;4991543;28;20109;-72
2022/07/09 08:36:17;;;;;;;4.28;1.30;;;;;;;;;;4991731;28;20031;-72
2022/07/09 08:38:42;;;;;;;3.55;1.30;;;;;;;;;;4991442;28;20022;-73
2022/07/09 08:41:08;;;;;;;10.05;1.55;;;;;;;;;;4991351;28;20081;-73
2022/07/09 08:43:36;;;;;;;6.25;1.33;;;;;;;;;;4991029;28;20023;-73
2022/07/09 08:46:02;;;;;;;3.60;1.20;;;;;;;;;;4991375;28;20026;-75
2022/07/09 08:48:32;;;;;;;7.10;1.48;;;;;;;;;;4991188;28;20037;-74
2022/07/09 08:50:58;;;;;;;2.90;1.30;;;;;;;;;;4991576;28;20027;-73
2022/07/09 08:53:27;;;;;;;5.13;1.50;;;;;;;;;;4991059;28;20022;-75
2022/07/09 08:55:53;;;;;;;3.85;1.40;;;;;;;;;;4973775;28;20030;-73
2022/07/09 08:58:18;;;;;;;6.72;1.50;;;;;;;;;;4990997;28;20525;-73
2022/07/09 09:00:44;;;;;;;4.82;1.50;;;;;;;;;;4991021;28;20390;-73
2022/07/09 09:03:09;;;;;;;6.18;1.50;;;;;;;;;;4990989;28;20026;-73
2022/07/09 09:05:34;;;;;;;6.72;1.40;;;;;;;;;;4991172;28;20033;-72
2022/07/09 09:08:00;;;;;;;3.55;1.40;;;;;;;;;;4990962;28;20030;-73
2022/07/09 09:10:28;;;;;;;4.03;1.50;;;;;;;;;;4991014;28;20088;-72
2022/07/09 09:13:01;;;;;;;2.70;1.40;;;;;;;;;;4991035;28;20031;-73
2022/07/09 09:15:29;;;;;;;6.65;1.60;;;;;;;;;;4990725;28;20029;-76
2022/07/09 09:17:56;;;;;;;6.53;1.55;;;;;;;;;;4990780;28;20034;-73
2022/07/09 09:20:22;;;;;;;4.93;1.50;;;;;;;;;;4990850;28;20046;-74
2022/07/09 09:22:50;;;;;;;5.80;1.30;;;;;;;;;;4990679;28;20520;-71
2022/07/09 09:25:19;;;;;;;6.20;1.40;;;;;;;;;;4990551;28;20025;-73
2022/07/09 09:27:58;;;;;;;5.25;1.48;;;;;;;;;;4990877;28;20049;-73
2022/07/09 09:30:28;;;;;;;6.47;1.45;;;;;;;;;;4990940;28;20454;-73
2022/07/09 09:32:59;;;;;;;5.72;1.30;;;;;;;;;;4990815;28;20029;-73
2022/07/09 09:35:30;;;;;;;5.13;1.40;;;;;;;;;;4990453;28;20208;-74
2022/07/09 09:37:56;;;;;;;4.30;1.40;;;;;;;;;;4990480;28;20037;-73
2022/07/09 09:40:23;;;;;;;5.30;1.40;;;;;;;;;;4990934;28;20026;-74
2022/07/09 09:42:49;;;;;;;4.40;1.42;;;;;;;;;;4990808;28;20034;-76
2022/07/09 09:45:15;;;;;;;3.63;1.50;;;;;;;;;;4990828;28;20042;-76
2022/07/09 09:48:00;;;;;;;4.35;1.27;;;;;;;;;;4990536;28;20041;-76
2022/07/09 09:50:25;;;;;;;4.25;1.50;;;;;;;;;;4990641;28;20030;-76
2022/07/09 09:52:54;;;;;;;7.15;1.40;;;;;;;;;;4990664;28;20084;-75
2022/07/09 09:55:21;;;;;;;6.15;1.35;;;;;;;;;;4990211;28;20030;-76
2022/07/09 09:57:48;;;;;;;3.25;1.50;;;;;;;;;;4990279;28;20050;-75
2022/07/09 10:00:15;;;;;;;5.38;1.42;;;;;;;;;;4991150;28;20474;-76
2022/07/09 10:02:46;;;;;;;5.18;1.60;;;;;;;;;;4990475;28;20398;-77
2022/07/09 10:05:11;;;;;;;3.97;1.40;;;;;;;;;;4990530;28;20038;-79
2022/07/09 10:07:37;;;;;;;3.97;1.30;;;;;;;;;;4990116;28;20081;-78
2022/07/09 10:10:06;;;;;;;4.50;1.20;;;;;;;;;;4990212;28;20459;-77
2022/07/09 10:12:35;;;;;;;6.93;1.30;;;;;;;;;;4990241;28;20676;-75
2022/07/09 10:15:01;;;;;;;4.32;1.40;;;;;;;;;;4990320;28;20061;-74
2022/07/09 10:17:27;;;;;;;6.63;1.50;;;;;;;;;;4990359;28;20057;-75
2022/07/09 10:20:06;;;;;;;5.13;1.30;;;;;;;;;;4972924;28;20030;-73
2022/07/09 10:22:35;;;;;;;4.25;1.38;;;;;;;;;;4990100;28;20124;-75
2022/07/09 10:25:01;;;;;;;3.13;1.20;;;;;;;;;;4972577;28;20517;-75
2022/07/09 10:27:26;;;;;;;5.22;1.23;;;;;;;;;;4990004;28;20482;-75
2022/07/09 10:29:57;;;;;;;5.18;1.30;;;;;;;;;;4990182;28;20077;-76
2022/07/09 10:32:27;;;;;;;3.00;1.00;;;;;;;;;;4990151;28;20029;-73
2022/07/09 10:34:59;;;;;;;;;;;;;;;;;;4990684;28;20110;-75
2022/07/09 10:37:32;;;;;;;2.78;1.20;;;;;;;;;;4991320;28;19913;-76
2022/07/09 10:40:14;;;;;;;2.67;1.40;;;;;;;;;;4993794;28;20532;-73
2022/07/09 10:42:42;;;;;;;3.83;1.40;;;;;;;;;;4993691;28;20049;-75
2022/07/09 10:45:21;;;;;;;4.20;1.52;;;;;;;;;;4993529;28;20053;-73
2022/07/09 10:47:53;;;;;;;2.73;1.20;;;;;;;;;;4993427;28;20022;-73
2022/07/09 10:50:18;;;;;;;2.20;1.20;;;;;;;;;;4993560;28;20022;-73
2022/07/09 10:52:45;;;;;;;3.50;1.40;;;;;;;;;;4975909;28;20701;-73
2022/07/09 10:55:10;;;;;;;3.67;1.33;;;;;;;;;;4993707;28;20023;-73
2022/07/09 10:57:36;;;;;;;2.47;1.05;;;;;;;;;;4993705;28;20089;-74
2022/07/09 11:00:02;;;;;;;6.07;1.15;;;;;;;;;;4975974;28;20022;-74
2022/07/09 11:02:28;;;;;;;4.85;1.20;;;;;;;;;;4993274;28;20030;-74
2022/07/09 11:04:53;;;;;;;2.20;1.02;;;;;;;;;;4993029;28;20030;-74
2022/07/09 11:07:23;;;;;;;2.95;1.20;;;;;;;;;;4993006;28;20033;-76
2022/07/09 11:09:50;;;;;;;5.60;1.23;;;;;;;;;;4993266;28;20037;-74
2022/07/09 11:12:19;;;;;;;4.80;1.20;;;;;;;;;;4975631;28;20608;-73
2022/07/09 11:14:46;;;;;;;2.72;1.35;;;;;;;;;;4993136;28;20035;-73
2022/07/09 11:17:20;;;;;;;3.88;1.20;;;;;;;;;;4993081;28;20088;-72
2022/07/09 11:19:47;;;;;;;2.35;1.10;;;;;;;;;;4992903;28;20031;-72
2022/07/09 11:22:12;;;;;;;4.57;1.10;;;;;;;;;;4992784;28;20110;-72
2022/07/09 11:24:38;;;;;;;2.75;1.08;;;;;;;;;;4992821;28;20109;-72
2022/07/09 11:27:05;;;;;;;4.15;0.95;;;;;;;;;;4992973;28;20061;-73
2022/07/09 11:29:31;;;;;;;6.55;1.30;;;;;;;;;;4992915;28;20026;-72
2022/07/09 11:31:57;;;;;;;4.93;1.10;;;;;;;;;;4992980;28;20391;-73
2022/07/09 11:34:23;;;;;;;2.63;1.10;;;;;;;;;;4992674;28;20474;-73
2022/07/09 11:36:54;;;;;;;2.00;1.10;;;;;;;;;;4992609;28;20110;-72
2022/07/09 11:39:33;;;;;;;4.90;1.27;;;;;;;;;;4992642;28;20026;-72
2022/07/09 11:42:00;;;;;;;3.42;1.20;;;;;;;;;;4975362;28;20551;-72
2022/07/09 11:44:27;;;;;;;2.95;1.20;;;;;;;;;;4992482;28;20478;-72
2022/07/09 11:47:10;;;;;;;3.47;1.05;;;;;;;;;;4992573;28;20100;-73
2022/07/09 11:49:41;;;;;;;6.03;1.30;;;;;;;;;;4992453;28;20125;-73
2022/07/09 11:52:19;;;;;;;5.43;1.17;;;;;;;;;;4992210;28;20026;-72
2022/07/09 11:55:21;;;;;;;1.90;0.90;;;;;;;;;;4992261;28;20542;-71
2022/07/09 11:57:57;;;;;;;2.05;0.85;;;;;;;;;;4941303;28;20046;-71
2022/07/09 12:00:23;;;;;;;5.50;1.10;;;;;;;;;;4971623;28;20027;-71
2022/07/09 12:02:49;;;;;;;2.42;1.10;;;;;;;;;;4972923;28;20035;-73
2022/07/09 12:05:30;;;;;;;3.17;1.10;;;;;;;;;;4972611;28;20443;-72
2022/07/09 12:07:58;;;;;;;5.55;1.35;;;;;;;;;;4972527;28;20034;-72
2022/07/09 12:10:32;;;;;;;1.83;1.10;;;;;;;;;;4972709;28;20027;-72
2022/07/09 12:12:58;;;;;;;2.67;1.00;;;;;;;;;;4972406;28;20621;-72
2022/07/09 12:15:24;;;;;;;5.18;1.20;;;;;;;;;;4972310;28;20030;-73
2022/07/09 12:17:54;;;;;;;2.78;1.20;;;;;;;;;;4972505;28;20531;-72
2022/07/09 12:20:21;;;;;;;4.18;1.00;;;;;;;;;;4972610;28;20050;-72
2022/07/09 12:22:46;;;;;;;2.33;1.10;;;;;;;;;;4972509;28;20120;-71
2022/07/09 12:25:13;;;;;;;2.28;1.00;;;;;;;;;;4972371;28;20058;-71
2022/07/09 12:27:38;;;;;;;2.63;1.10;;;;;;;;;;4972270;28;20065;-72
2022/07/09 12:30:04;;;;;;;2.28;1.10;;;;;;;;;;4972216;28;20023;-75
2022/07/09 12:32:30;;;;;;;2.33;1.08;;;;;;;;;;4972287;28;20023;-73
2022/07/09 12:34:58;;;;;;;2.20;1.00;;;;;;;;;;4972026;28;20371;-72
2022/07/09 12:37:24;;;;;;;3.00;1.10;;;;;;;;;;4972382;28;20039;-72
2022/07/09 12:39:49;;;;;;;2.50;1.08;;;;;;;;;;4972231;28;20049;-73
2022/07/09 12:42:15;;;;;;;3.70;1.10;;;;;;;;;;4971005;28;20039;-71
2022/07/09 12:44:40;;;;;;;4.25;1.05;;;;;;;;;;4971882;28;20050;-72
2022/07/09 12:47:06;;;;;;;2.90;0.95;;;;;;;;;;4971686;28;20106;-71
2022/07/09 12:49:31;;;;;;;2.78;0.98;;;;;;;;;;4971926;28;20054;-74
2022/07/09 12:51:56;;;;;;;2.72;1.30;;;;;;;;;;4971878;28;20525;-73
2022/07/09 12:54:22;;;;;;;2.45;1.00;;;;;;;;;;4972115;28;20039;-71
2022/07/09 12:56:50;;;;;;;2.70;0.98;;;;;;;;;;4977259;28;20074;-72
2022/07/09 12:59:17;;;;;;;4.30;1.20;;;;;;;;;;4990941;28;20081;-73
2022/07/09 13:01:43;;;;;;;2.95;1.00;;;;;;;;;;4990733;28;20076;-71
2022/07/09 13:04:08;;;;;;;3.10;1.05;;;;;;;;;;4991111;28;20031;-72
2022/07/09 13:06:33;;;;;;;3.85;1.15;;;;;;;;;;4973177;28;20026;-74
2022/07/09 13:09:05;;;;;;;3.75;1.08;;;;;;;;;;4973215;28;20034;-77
2022/07/09 13:11:31;;;;;;;4.00;1.08;;;;;;;;;;4990987;28;20030;-76
2022/07/09 13:13:57;;;;;;;3.25;1.00;;;;;;;;;;4990857;28;20490;-76
2022/07/09 13:16:22;;;;;;;1.98;1.02;;;;;;;;;;4990925;28;20027;-77
2022/07/09 13:18:48;;;;;;;2.83;1.00;;;;;;;;;;4973400;28;20030;-77
2022/07/09 13:21:14;;;;;;;3.40;1.20;;;;;;;;;;4990756;28;20052;-77
2022/07/09 13:23:40;;;;;;;2.70;0.90;;;;;;;;;;4990700;28;20030;-76
2022/07/09 13:26:06;;;;;;;5.00;1.00;;;;;;;;;;4990617;28;20022;-76
2022/07/09 13:28:32;;;;;;;2.45;1.00;;;;;;;;;;4973377;28;20439;-75
2022/07/09 13:30:58;;;;;;;3.38;1.10;;;;;;;;;;4990923;28;20057;-76
2022/07/09 13:33:23;;;;;;;3.50;0.90;;;;;;;;;;4990815;28;20034;-76
2022/07/09 13:35:48;;;;;;;2.13;0.98;;;;;;;;;;4990518;28;20262;-76
2022/07/09 13:38:14;;;;;;;4.28;1.00;;;;;;;;;;4990499;28;20030;-76
2022/07/09 13:40:39;;;;;;;2.22;1.10;;;;;;;;;;4990588;28;20029;-76
2022/07/09 13:43:05;;;;;;;3.35;1.10;;;;;;;;;;4990700;28;20035;-75
2022/07/09 13:45:30;;;;;;;2.33;1.15;;;;;;;;;;4990513;28;20081;-76
2022/07/09 13:47:56;;;;;;;2.70;0.90;;;;;;;;;;4990692;28;20574;-76
2022/07/09 13:50:22;;;;;;;2.05;0.85;;;;;;;;;;4990997;28;20383;-76
2022/07/09 13:52:48;;;;;;;3.10;1.00;;;;;;;;;;4990414;28;20034;-76
2022/07/09 13:55:13;;;;;;;4.53;0.90;;;;;;;;;;4990345;28;20116;-76
2022/07/09 13:57:39;;;;;;;2.22;1.10;;;;;;;;;;4990164;28;20641;-77
2022/07/09 14:00:06;;;;;;;3.97;1.15;;;;;;;;;;4990611;28;20082;-77
2022/07/09 14:02:33;;;;;;;3.33;1.27;;;;;;;;;;4990535;28;20113;-75
2022/07/09 14:05:02;;;;;;;4.07;1.20;;;;;;;;;;4990579;28;20026;-76
2022/07/09 14:07:28;;;;;;;3.65;0.85;;;;;;;;;;4990351;28;20046;-75
2022/07/09 14:09:53;;;;;;;2.95;0.90;;;;;;;;;;4990285;28;20031;-76
2022/07/09 14:12:19;;;;;;;1.88;1.00;;;;;;;;;;4991434;28;20037;-74
2022/07/09 14:14:44;;;;;;;1.85;0.95;;;;;;;;;;4994199;28;20032;-76
2022/07/09 14:17:10;;;;;;;4.65;0.90;;;;;;;;;;4993903;28;20602;-75
2022/07/09 14:19:36;;;;;;;1.90;0.88;;;;;;;;;;4994225;28;20023;-76
2022/07/09 14:22:01;;;;;;;1.77;0.80;;;;;;;;;;4994203;28;20114;-75
2022/07/09 14:24:27;;;;;;;2.85;1.00;;;;;;;;;;4994235;28;20037;-75
2022/07/09 14:26:52;;;;;;;2.35;1.10;;;;;;;;;;4993892;28;20030;-76
2022/07/09 14:29:18;;;;;;;2.70;1.00;;;;;;;;;;4993814;28;20084;-76
2022/07/09 14:31:43;;;;;;;2.45;1.10;;;;;;;;;;4993881;28;20026;-74
2022/07/09 14:34:09;;;;;;;4.65;1.23;;;;;;;;;;4993778;28;20027;-73
2022/07/09 14:36:34;;;;;;;4.45;1.05;;;;;;;;;;4993725;28;20022;-73
2022/07/09 14:39:02;;;;;;;2.53;0.90;;;;;;;;;;4993698;28;20042;-73